• Join FlightAware (Why Join?)
  • Login
  • US Flag GB Flag 
22:21 EST


 

Airport Tracker/Info


-or-


 

Live Flight TrackerFlight Track Log ✈ N929SR ✈ 18-Jul-2013 ✈ KHKS - KSYR

Flight Track Log - Related Links

Times and Time Zones

All times are in EDT time to prevent confusion due to time zone crossing. See the N929SR flight status page for this flight to view local times or setup timezone preferences in your user account.

Time Position Orientation Groundspeed Altitude Reporting Facility
EDT Latitude Longitude Course Direction KTS MPH feet Rate Location/Type
15:09 32.2375 -90.1853 87° East 245 282 5,400  Level Memphis Center
15:10 32.2061 -90.1142 118° Southeast 270 311 8,300 2,600 Climbing Memphis Center
15:11 32.2183 -90.0183 81° East 275 316 10,600 2,167 Climbing Memphis Center
15:13 32.2781 -89.7972 72° East 355 409 14,800 2,233 Climbing Memphis Center
15:14 32.3541 -89.4073 87° East  Level FlightAware Approximate
15:14 32.3339 -89.6911 58° Northeast 355 409 17,300  Level Memphis Center
15:15 32.3856 -89.5872 59° Northeast 362 417 19,600 2,400 Climbing Memphis Center
15:16 32.4372 -89.4833 59° Northeast 362 417 22,100 2,200 Climbing Memphis Center
15:17 32.4864 -89.3797 61° Northeast 362 417 24,000 1,250 Climbing Memphis Center
15:18 32.5397 -89.2756 59° Northeast 382 440 24,600 1,000 Climbing Memphis Center
15:19 32.5972 -89.1564 60° Northeast 398 458 26,000 1,650 Climbing Memphis Center
15:20 32.6586 -89.0347 59° Northeast 411 473 27,900 1,900 Climbing Memphis Center
15:21 32.7158 -88.9178 60° Northeast 416 479 29,800 1,900 Climbing Memphis Center
15:22 32.7792 -88.8056 56° Northeast 416 479 31,700 1,950 Climbing Memphis Center
15:23 32.8806 -88.7419 28° Northeast 396 456 33,700 1,400 Climbing Memphis Center
15:24 32.9861 -88.6806 26° Northeast 396 456 34,500 950 Climbing Memphis Center
15:25 33.0939 -88.6142 27° Northeast 416 479 35,600 1,350 Climbing Memphis Center
15:26 33.2036 -88.5472 27° Northeast 431 496 37,200 1,800 Climbing Memphis Center
15:27 33.3089 -88.4831 27° Northeast 431 496 39,200 1,850 Climbing Memphis Center
15:28 33.4061 -88.4236 27° Northeast 411 473 40,900 900 Climbing Memphis Center
15:29 33.5075 -88.3642 26° Northeast 399 459 41,000 50 Climbing Memphis Center
15:30 33.5914 -88.2550 47° Northeast 394 453 41,000  Level Memphis Center
15:31 33.6689 -88.1533 47° Northeast 399 459 41,000  Level Memphis Center
15:32 33.7422 -88.0539 48° Northeast 399 459 41,000  Level Memphis Center
15:33 33.8114 -87.9572 49° Northeast 408 470 41,000  Level Memphis Center
15:34 33.8867 -87.8550 48° Northeast 414 476 41,000  Level Memphis Center
15:35 33.9681 -87.7525 46° Northeast 408 470 41,000  Level Memphis Center
15:37 34.1397 -87.5147 49° Northeast 436 502 41,000  Level Atlanta Center
15:38 34.2158 -87.4050 50° Northeast 424 488 41,000  Level Atlanta Center
15:39 34.2958 -87.2975 48° Northeast 424 488 41,000  Level Atlanta Center
15:40 34.3736 -87.1947 47° Northeast 424 488 41,000  Level Atlanta Center
15:41 34.4450 -87.0992 48° Northeast 424 488 41,000  Level Atlanta Center
15:42 34.5225 -86.9961 48° Northeast 424 488 41,000  Level Atlanta Center
15:43 34.6003 -86.8928 48° Northeast 419 482 41,000  Level Atlanta Center
15:44 34.6756 -86.7894 48° Northeast 413 475 41,000  Level Atlanta Center
15:45 34.7553 -86.6808 48° Northeast 413 475 41,000  Level Atlanta Center
15:46 34.8306 -86.5717 50° Northeast 413 475 41,000  Level Atlanta Center
15:47 34.9100 -86.4653 48° Northeast 418 481 41,000  Level Atlanta Center
15:48 34.9850 -86.3583 49° Northeast 418 481 41,000  Level Atlanta Center
15:49 35.0619 -86.2514 49° Northeast 418 481 41,000  Level Atlanta Center
15:50 35.1453 -86.1394 48° Northeast 418 481 41,000  Level Atlanta Center
15:51 35.2117 -86.0394 51° Northeast 418 481 41,000  Level Atlanta Center
15:52 35.2886 -85.9267 50° Northeast 424 488 41,000  Level Atlanta Center
15:53 35.3781 -85.8117 46° Northeast 424 488 41,000  Level Atlanta Center
15:54 35.4228 -85.7436 51° Northeast 424 488 41,000  Level Atlanta Center
15:55 35.5014 -85.6331 49° Northeast 424 488 41,000  Level Atlanta Center
15:56 35.5778 -85.5247 49° Northeast 424 488 41,000  Level Atlanta Center
15:57 35.6397 -85.4008 58° Northeast 424 488 41,000  Level Atlanta Center
15:58 35.7017 -85.2789 58° Northeast 419 482 41,000  Level Atlanta Center
15:59 35.7653 -85.1572 57° Northeast 413 475 41,000  Level Atlanta Center
16:00 35.8119 -85.0656 58° Northeast 408 470 41,000  Level Atlanta Center
16:01 35.8842 -84.9178 59° Northeast 429 494 41,000  Level Atlanta Center
16:02 35.9497 -84.7956 56° Northeast 422 486 41,000  Level Atlanta Center
16:03 36.0128 -84.6728 58° Northeast 432 497 41,000  Level Atlanta Center
16:04 36.0719 -84.5525 59° Northeast 427 491 41,000  Level Atlanta Center
16:05 36.1244 -84.4244 63° Northeast 421 484 41,000  Level Atlanta Center
16:06 36.1703 -84.3225 61° Northeast 417 480 41,000  Level Indianapolis Center
16:07 36.2261 -84.1989 61° Northeast 413 475 41,000  Level Indianapolis Center
16:08 36.2778 -84.0731 63° Northeast 410 472 41,000  Level Indianapolis Center
16:09 36.3311 -83.9478 62° Northeast 410 472 41,000  Level Indianapolis Center
16:10 36.3925 -83.7956 63° Northeast 412 474 41,000  Level Indianapolis Center
16:11 36.4472 -83.6694 62° Northeast 415 478 41,000  Level Indianapolis Center
16:12 36.5008 -83.5428 62° Northeast 415 478 41,000  Level Indianapolis Center
16:13 36.5647 -83.4058 60° Northeast 417 480 41,000  Level Indianapolis Center
16:14 36.6217 -83.2822 60° Northeast 412 474 41,000  Level Indianapolis Center
16:15 36.6814 -83.1564 59° Northeast 419 482 41,000  Level Indianapolis Center
16:16 36.7575 -83.0469 49° Northeast 417 480 41,000  Level Indianapolis Center
16:17 36.8661 -82.9561 34° Northeast 428 493 41,000  Level Indianapolis Center
16:18 36.9742 -82.8911 26° Northeast 427 491 41,000  Level Indianapolis Center
16:19 37.0789 -82.8183 29° Northeast 435 501 41,000  Level Indianapolis Center
16:20 37.1850 -82.7492 27° Northeast 432 497 41,000  Level Indianapolis Center
16:21 37.3125 -82.6664 27° Northeast 438 504 41,000  Level Indianapolis Center
16:22 37.4225 -82.5950 27° Northeast 444 511 41,000  Level Indianapolis Center
16:23 37.5311 -82.5222 28° Northeast 442 509 41,000  Level Indianapolis Center
16:24 37.6403 -82.4489 28° Northeast 442 509 41,000  Level Indianapolis Center
16:25 37.7497 -82.3761 28° Northeast 442 509 41,000  Level Indianapolis Center
16:26 37.8786 -82.2911 27° Northeast 445 512 41,000  Level Indianapolis Center
16:27 37.9892 -82.2186 27° Northeast 446 513 41,000  Level Indianapolis Center
16:28 38.0897 -82.1517 28° Northeast 449 517 41,000  Level Indianapolis Center
16:29 38.1992 -82.0778 28° Northeast 446 513 41,000  Level Indianapolis Center
16:30 38.3311 -81.9878 28° Northeast 448 516 41,000  Level Indianapolis Center
16:31 38.4228 -81.8808 42° Northeast 445 512 41,000  Level Indianapolis Center
16:32 38.5125 -81.7700 44° Northeast 447 514 41,000  Level Indianapolis Center
16:33 38.6086 -81.6517 44° Northeast 450 518 41,000  Level Indianapolis Center
16:34 38.6994 -81.5378 44° Northeast 455 524 41,000  Level Indianapolis Center
16:36 38.7906 -81.4256 44° Northeast 453 521 41,000  Level Indianapolis Center
16:37 38.8872 -81.3078 43° Northeast 466 536 41,000  Level Indianapolis Center
16:38 38.9753 -81.1972 44° Northeast 447 514 41,000  Level Indianapolis Center
16:39 39.0664 -81.0839 44° Northeast 454 522 41,000  Level Indianapolis Center
16:40 39.1742 -80.9483 44° Northeast 453 521 41,000  Level Indianapolis Center
16:41 39.2625 -80.8356 45° Northeast 449 517 41,000  Level Indianapolis Center
16:42 39.3519 -80.7214 45° Northeast 451 519 41,000  Level Indianapolis Center
16:43 39.4417 -80.6106 44° Northeast 448 516 41,000  Level Indianapolis Center
16:44 39.5269 -80.4986 45° Northeast 438 504 41,000  Level Indianapolis Center
16:45 39.6111 -80.3917 44° Northeast 425 489 41,000  Level Indianapolis Center
16:46 39.6853 -80.2997 44° Northeast 423 487 41,000  Level Cleveland Center
16:47 39.7725 -80.1886 44° Northeast 423 487 41,000  Level Cleveland Center
16:48 39.8575 -80.0772 45° Northeast 423 487 41,000  Level Cleveland Center
16:49 39.9425 -79.9658 45° Northeast 428 493 41,000 -50 Level Cleveland Center
16:50 40.0378 -79.8400 45° Northeast 438 504 40,900 -3,000 Descending Cleveland Center
16:51 40.1225 -79.7333 44° Northeast 433 498 35,000 -2,400 Descending Cleveland Center
16:52 40.2089 -79.6181 46° Northeast 433 498 36,100 -900 Climbing Cleveland Center
16:53 40.2956 -79.5025 45° Northeast 433 498 33,200 -1,550 Descending Cleveland Center
16:54 40.3819 -79.3892 45° Northeast 433 498 33,000 -100 Descending Cleveland Center
16:55 40.4536 -79.2789 49° Northeast 433 498 33,000  Level Cleveland Center
16:56 40.5292 -79.1381 55° Northeast 447 514 33,000  Level Cleveland Center
16:57 40.6167 -78.9856 53° Northeast 470 541 33,000  Level Cleveland Center
16:58 40.6817 -78.8692 54° Northeast 465 535 33,000  Level Cleveland Center
16:59 40.7375 -78.7089 65° Northeast 445 512 33,000  Level Cleveland Center
17:00 40.7869 -78.5483 68° East 445 512 33,000  Level Cleveland Center
17:02 40.9017 -78.1953 67° East 470 541 33,000  Level New York Center
17:03 40.9511 -78.0358 68° East 470 541 33,000 -50 Level New York Center
17:04 41.0003 -77.8758 68° East 470 541 32,900 -344 Descending New York Center
17:05 41.0442 -77.7347 68° East 470 541 32,300 -908 Descending New York Center
17:06 41.0744 -77.5697 76° East 459 528 31,100 -1,525 Descending New York Center
17:07 41.0989 -77.3961 79° East 459 528 29,300 -1,033 Descending New York Center
17:08 41.1450 -77.2406 68° East 464 534 29,000 -148 Descending New York Center
17:09 41.2092 -77.0950 60° Northeast 455 524 29,000  Level New York Center
17:10 41.2731 -76.9519 59° Northeast 455 524 29,000  Level New York Center
17:11 41.3408 -76.8061 58° Northeast 455 524 29,000  Level New York Center
17:12 41.4339 -76.6956 42° Northeast 455 524 29,000 -559 Level New York Center
17:13 41.5486 -76.6114 29° Northeast 446 513 27,900 -1,261 Descending New York Center
17:14 41.6633 -76.5242 30° Northeast 463 533 26,500 -1,488 Descending New York Center
17:15 41.7800 -76.4314 31° Northeast 463 533 24,900 -1,450 Descending New York Center
17:16 41.8925 -76.3461 29° Northeast 458 527 23,600 -1,240 Descending New York Center
17:17 41.9983 -76.2658 29° Northeast 453 521 22,400 -1,148 Descending New York Center
17:19 42.2525 -76.0728 29° Northeast 436 502 19,600 -1,212 Descending Boston Center
17:20 42.3631 -76.0061 24° Northeast 405 466 18,200 -1,250 Descending Boston Center
17:21 42.4569 -75.9411 27° Northeast 390 449 17,100 -600 Descending Boston Center
17:22 42.5419 -75.8839 26° Northeast 369 425 17,000 -50 Descending Boston Center
17:23 42.6081 -75.8367 28° Northeast 348 400 17,000 -409 Level Boston Center
17:25 42.7003 -75.8222 North 321 369 16,100 -1,273 Descending Boston Center
17:26 42.7881 -75.8864 332° Northwest 279 321 14,200 -2,015 Descending Boston Center
17:27 42.8756 -75.9536 331° Northwest 287 330 11,700 -1,600 Descending Boston Center
17:28 42.9322 -75.9397 10° North 286 329 11,000 -1,046 Descending Boston Center
17:29 42.9986 -75.8811 33° Northeast 254 292 9,800 -2,400 Descending Boston Center
17:30 43.0750 -75.8369 23° Northeast 268 308 6,200 -3,300 Descending Boston Center
17:31 43.1194 -75.8822 323° Northwest 215 247 3,200 -1,900 Descending Boston Center
17:32 43.1147 -75.9703 266° West 171 197 2,400 -1,023 Descending Boston Center
17:33 43.1100 -76.0525 266° West 143 165 1,000 -818 Descending Boston Center
17:34 43.1144 -76.1094 276° West 160 184 600 -293 Descending Boston Center
17:35 43.1106 -76.1719 265° West 160 184 400 -200 Descending Boston Center
17:41 43.1112 -76.1063 318° Northwest  Level Estimated
17:48 43.1112 -76.1063 318° Northwest  Level Estimated
17:49 43.1112 -76.1063 318° Northwest  Level Estimated